Time,TemperatureF,DewpointF,PressureIn,WindDirection,WindDirectionDegrees,WindSpeedMPH,WindSpeedGustMPH,Humidity,HourlyPrecipIn,Conditions,Clouds,dailyrainin,SoftwareType,DateUTC
2013-03-08 00:00:00,50.0,31.1,30.06,ESE,117,6.0,7.0,48,0.00,CLR,CLR,0.00,WeatherDisplay:10.37,2013-03-08 06:00:00,
2013-03-08 00:06:00,49.6,31.2,30.06,ESE,112,5.0,5.0,49,0.00,SCT,SCT,0.00,WeatherDisplay:10.37,2013-03-08 06:06:00,
2013-03-08 00:12:00,49.6,31.2,30.06,ESE,121,6.0,9.0,49,0.00,SCT,SCT,0.00,WeatherDisplay:10.37,2013-03-08 06:12:00,
2013-03-08 00:18:00,49.6,31.2,30.06,SE,125,5.0,9.0,49,0.00,SCT,SCT,0.00,WeatherDisplay:10.37,2013-03-08 06:18:00,
2013-03-08 00:24:00,49.5,31.1,30.06,ESE,115,6.0,7.0,49,0.00,SCT,SCT,0.00,WeatherDisplay:10.37,2013-03-08 06:24:00,
2013-03-08 00:30:00,49.3,30.9,30.05,SE,125,5.0,7.0,49,0.00,SCT,SCT,0.00,WeatherDisplay:10.37,2013-03-08 06:30:00,
2013-03-08 00:36:00,49.3,31.4,30.05,ESE,123,5.0,6.0,50,0.00,SCT,SCT,0.00,WeatherDisplay:10.37,2013-03-08 06:36:00,
2013-03-08 00:42:00,49.1,31.2,30.06,SE,127,5.0,6.0,50,0.00,SCT,SCT,0.00,WeatherDisplay:10.37,2013-03-08 06:42:00,
2013-03-08 00:48:00,48.9,31.1,30.06,SE,128,6.0,7.0,50,0.00,SCT,SCT,0.00,WeatherDisplay:10.37,2013-03-08 06:48:00,
2013-03-08 00:54:00,48.7,30.9,30.05,SE,138,5.0,7.0,50,0.00,SCT,SCT,0.00,WeatherDisplay:10.37,2013-03-08 06:54:00,
2013-03-08 01:00:00,48.7,31.4,30.05,SE,128,5.0,7.0,51,0.00,SCT,SCT,0.00,WeatherDisplay:10.37,2013-03-08 07:00:00,
2013-03-08 01:06:00,48.6,31.3,30.06,SE,126,5.0,9.0,51,0.00,SCT,SCT,0.00,WeatherDisplay:10.37,2013-03-08 07:06:00,
2013-03-08 01:12:00,48.2,30.9,30.06,ESE,121,3.0,6.0,51,0.00,SCT,SCT,0.00,WeatherDisplay:10.37,2013-03-08 07:12:00,
2013-03-08 01:18:00,48.0,31.2,30.06,ESE,109,6.0,9.0,52,0.00,SCT,SCT,0.00,WeatherDisplay:10.37,2013-03-08 07:18:00,
2013-03-08 01:24:00,47.8,31.0,30.06,ESE,107,6.0,7.0,52,0.00,SCT,SCT,0.00,WeatherDisplay:10.37,2013-03-08 07:24:00,
2013-03-08 01:30:00,47.8,31.0,30.06,ESE,106,6.0,7.0,52,0.00,SCT,SCT,0.00,WeatherDisplay:10.37,2013-03-08 07:30:00,
2013-03-08 01:36:00,47.8,31.0,30.06,ESE,116,5.0,7.0,52,0.00,SCT,SCT,0.00,WeatherDisplay:10.37,2013-03-08 07:36:00,
2013-03-08 01:42:00,47.7,30.9,30.06,ESE,107,3.0,5.0,52,0.00,SCT,SCT,0.00,WeatherDisplay:10.37,2013-03-08 07:42:00,
2013-03-08 01:48:00,47.7,30.9,30.06,ESE,115,5.0,7.0,52,0.00,SCT,SCT,0.00,WeatherDisplay:10.37,2013-03-08 07:48:00,
2013-03-08 01:54:00,47.7,30.9,30.06,ESE,118,5.0,7.0,52,0.00,SCT,SCT,0.00,WeatherDisplay:10.37,2013-03-08 07:54:00,
2013-03-08 02:00:00,47.5,31.2,30.06,ESE,108,6.0,7.0,53,0.00,SCT,SCT,0.00,WeatherDisplay:10.37,2013-03-08 08:00:00,
2013-03-08 02:06:00,47.3,31.0,30.07,SE,130,3.0,6.0,53,0.00,SCT,SCT,0.00,WeatherDisplay:10.37,2013-03-08 08:06:00,
2013-03-08 02:12:00,47.1,30.8,30.07,SE,126,5.0,8.0,53,0.00,SCT,SCT,0.00,WeatherDisplay:10.37,2013-03-08 08:12:00,
2013-03-08 02:18:00,46.9,31.1,30.06,ESE,116,3.0,4.0,54,0.00,SCT,SCT,0.00,WeatherDisplay:10.37,2013-03-08 08:18:00,
2013-03-08 02:24:00,46.8,31.0,30.06,ESE,113,5.0,6.0,54,0.00,SCT,SCT,0.00,WeatherDisplay:10.37,2013-03-08 08:24:00,
2013-03-08 02:30:00,46.8,31.0,30.06,ESE,111,5.0,7.0,54,0.00,SCT,SCT,0.00,WeatherDisplay:10.37,2013-03-08 08:30:00,
2013-03-08 02:36:00,46.7,30.9,30.06,East,100,3.0,6.0,54,0.00,SCT,SCT,0.00,WeatherDisplay:10.37,2013-03-08 08:36:00,
2013-03-08 02:42:00,46.4,31.1,30.05,East,96,6.0,12.0,55,0.00,SCT,SCT,0.00,WeatherDisplay:10.37,2013-03-08 08:42:00,
2013-03-08 02:48:00,46.2,30.9,30.05,East,101,6.0,7.0,55,0.00,SCT,SCT,0.00,WeatherDisplay:10.37,2013-03-08 08:48:00,
2013-03-08 02:54:00,46.0,30.7,30.05,ESE,118,5.0,6.0,55,0.00,SCT,SCT,0.00,WeatherDisplay:10.37,2013-03-08 08:54:00,
2013-03-08 03:00:00,45.7,30.9,30.05,ESE,114,6.0,7.0,56,0.00,SCT,SCT,0.00,WeatherDisplay:10.37,2013-03-08 09:00:00,
2013-03-08 03:06:00,45.7,30.9,30.05,ESE,111,3.0,6.0,56,0.00,SCT,SCT,0.00,WeatherDisplay:10.37,2013-03-08 09:06:00,
2013-03-08 03:12:00,45.7,30.9,30.05,ESE,102,5.0,7.0,56,0.00,SCT,SCT,0.00,WeatherDisplay:10.37,2013-03-08 09:12:00,
2013-03-08 03:18:00,45.7,30.9,30.05,ESE,104,5.0,7.0,56,0.00,SCT,SCT,0.00,WeatherDisplay:10.37,2013-03-08 09:18:00,
2013-03-08 03:24:00,45.9,31.1,30.05,ESE,109,3.0,6.0,56,0.00,SCT,SCT,0.00,WeatherDisplay:10.37,2013-03-08 09:24:00,
2013-03-08 03:30:00,45.7,30.9,30.05,SE,125,5.0,7.0,56,0.00,SCT,SCT,0.00,WeatherDisplay:10.37,2013-03-08 09:30:00,
2013-03-08 03:36:00,45.7,30.9,30.05,SE,124,3.0,7.0,56,0.00,SCT,SCT,0.00,WeatherDisplay:10.37,2013-03-08 09:36:00,
2013-03-08 03:42:00,45.7,31.3,30.05,ESE,123,5.0,7.0,57,0.00,SCT,SCT,0.00,WeatherDisplay:10.37,2013-03-08 09:42:00,
2013-03-08 03:48:00,45.7,31.3,30.06,ESE,114,3.0,6.0,57,0.00,SCT,SCT,0.00,WeatherDisplay:10.37,2013-03-08 09:48:00,
2013-03-08 03:54:00,45.5,31.1,30.06,ESE,112,5.0,6.0,57,0.00,SCT,SCT,0.00,WeatherDisplay:10.37,2013-03-08 09:54:00,
2013-03-08 04:00:00,45.5,31.1,30.06,SE,127,3.0,5.0,57,0.00,SCT,SCT,0.00,WeatherDisplay:10.37,2013-03-08 10:00:00,
2013-03-08 04:06:00,45.5,31.1,30.05,ESE,117,5.0,7.0,57,0.00,FEW,FEW,0.00,WeatherDisplay:10.37,2013-03-08 10:06:00,
2013-03-08 04:12:00,45.8,31.4,30.05,ESE,117,7.0,9.0,57,0.00,FEW,FEW,0.00,WeatherDisplay:10.37,2013-03-08 10:12:00,
2013-03-08 04:18:00,45.9,31.5,30.05,ESE,121,5.0,7.0,57,0.00,FEW,FEW,0.00,WeatherDisplay:10.37,2013-03-08 10:18:00,
2013-03-08 04:24:00,45.9,31.5,30.05,ESE,122,5.0,6.0,57,0.00,FEW,FEW,0.00,WeatherDisplay:10.37,2013-03-08 10:24:00,
2013-03-08 04:30:00,46.0,31.6,30.05,ESE,119,6.0,7.0,57,0.00,FEW,FEW,0.00,WeatherDisplay:10.37,2013-03-08 10:30:00,
2013-03-08 04:36:00,46.0,31.6,30.05,SE,125,3.0,7.0,57,0.00,FEW,FEW,0.00,WeatherDisplay:10.37,2013-03-08 10:36:00,
2013-03-08 04:42:00,46.2,31.8,30.05,ESE,120,6.0,10.0,57,0.00,FEW,FEW,0.00,WeatherDisplay:10.37,2013-03-08 10:42:00,
2013-03-08 04:48:00,46.2,31.8,30.05,ESE,116,6.0,9.0,57,0.00,FEW,FEW,0.00,WeatherDisplay:10.37,2013-03-08 10:48:00,
2013-03-08 04:54:00,46.6,32.2,30.05,ESE,122,6.0,7.0,57,0.00,FEW,FEW,0.00,WeatherDisplay:10.37,2013-03-08 10:54:00,
2013-03-08 05:00:00,46.6,31.7,30.05,ESE,121,6.0,7.0,56,0.00,FEW,FEW,0.00,WeatherDisplay:10.37,2013-03-08 11:00:00,
2013-03-08 05:06:00,46.9,32.0,30.05,ESE,116,6.0,9.0,56,0.00,BKN,BKN,0.00,WeatherDisplay:10.37,2013-03-08 11:06:00,
2013-03-08 05:12:00,46.9,32.0,30.05,ESE,123,6.0,7.0,56,0.00,BKN,BKN,0.00,WeatherDisplay:10.37,2013-03-08 11:12:00,
2013-03-08 05:18:00,46.9,32.0,30.05,ESE,103,5.0,9.0,56,0.00,BKN,BKN,0.00,WeatherDisplay:10.37,2013-03-08 11:18:00,
2013-03-08 05:24:00,47.1,32.2,30.05,ESE,118,6.0,7.0,56,0.00,BKN,BKN,0.00,WeatherDisplay:10.37,2013-03-08 11:24:00,
2013-03-08 05:30:00,47.3,32.4,30.06,ESE,122,5.0,7.0,56,0.00,BKN,BKN,0.00,WeatherDisplay:10.37,2013-03-08 11:30:00,
2013-03-08 05:36:00,47.3,32.4,30.06,ESE,112,6.0,7.0,56,0.00,BKN,BKN,0.00,WeatherDisplay:10.37,2013-03-08 11:36:00,
2013-03-08 05:42:00,47.3,32.4,30.05,ESE,120,6.0,9.0,56,0.00,BKN,BKN,0.00,WeatherDisplay:10.37,2013-03-08 11:42:00,
2013-03-08 05:48:00,47.5,32.6,30.06,SE,133,5.0,9.0,56,0.00,BKN,BKN,0.00,WeatherDisplay:10.37,2013-03-08 11:48:00,
2013-03-08 05:54:00,47.5,32.6,30.06,SE,131,6.0,8.0,56,0.00,BKN,BKN,0.00,WeatherDisplay:10.37,2013-03-08 11:54:00,
2013-03-08 06:00:00,47.5,32.6,30.06,SE,126,8.0,10.0,56,0.00,BKN,BKN,0.00,WeatherDisplay:10.37,2013-03-08 12:00:00,
2013-03-08 06:06:00,47.7,32.8,30.06,SE,126,5.0,8.0,56,0.00,OVC,OVC,0.00,WeatherDisplay:10.37,2013-03-08 12:06:00,
2013-03-08 06:12:00,47.7,32.8,30.06,SE,139,6.0,7.0,56,0.00,OVC,OVC,0.00,WeatherDisplay:10.37,2013-03-08 12:12:00,
2013-03-08 06:18:00,47.7,32.8,30.06,ESE,123,7.0,8.0,56,0.00,OVC,OVC,0.00,WeatherDisplay:10.37,2013-03-08 12:18:00,
2013-03-08 06:24:00,47.7,32.8,30.06,SE,129,7.0,9.0,56,0.00,OVC,OVC,0.00,WeatherDisplay:10.37,2013-03-08 12:24:00,
2013-03-08 06:30:00,47.7,32.8,30.06,SE,126,5.0,6.0,56,0.00,OVC,OVC,0.00,WeatherDisplay:10.37,2013-03-08 12:30:00,
2013-03-08 06:36:00,47.7,32.8,30.06,SE,126,6.0,7.0,56,0.00,OVC,OVC,0.00,WeatherDisplay:10.37,2013-03-08 12:36:00,
2013-03-08 06:42:00,47.7,32.8,30.06,SE,143,6.0,8.0,56,0.00,OVC,OVC,0.00,WeatherDisplay:10.37,2013-03-08 12:42:00,
2013-03-08 06:48:00,47.7,32.8,30.06,SE,125,6.0,10.0,56,0.00,OVC,OVC,0.00,WeatherDisplay:10.37,2013-03-08 12:48:00,
2013-03-08 06:54:00,47.7,32.8,30.06,ESE,115,7.0,9.0,56,0.00,OVC,OVC,0.00,WeatherDisplay:10.37,2013-03-08 12:54:00,
2013-03-08 07:00:00,47.7,32.8,30.06,ESE,111,5.0,8.0,56,0.00,OVC,OVC,0.00,WeatherDisplay:10.37,2013-03-08 13:00:00,
2013-03-08 07:06:00,47.5,33.0,30.05,ESE,116,5.0,7.0,57,0.00,OVC,OVC,0.00,WeatherDisplay:10.37,2013-03-08 13:06:00,
2013-03-08 07:12:00,46.8,32.8,30.05,ESE,110,6.0,10.0,58,0.00,OVC,OVC,0.00,WeatherDisplay:10.37,2013-03-08 13:12:00,
2013-03-08 07:18:00,46.6,33.0,30.06,East,95,5.0,6.0,59,0.00,OVC,OVC,0.00,WeatherDisplay:10.37,2013-03-08 13:18:00,
2013-03-08 07:24:00,46.4,32.8,30.06,ESE,114,5.0,7.0,59,0.00,OVC,OVC,0.00,WeatherDisplay:10.37,2013-03-08 13:24:00,
2013-03-08 07:30:00,46.4,32.8,30.06,ESE,106,7.0,8.0,59,0.00,OVC,OVC,0.00,WeatherDisplay:10.37,2013-03-08 13:30:00,
2013-03-08 07:36:00,46.4,33.3,30.06,East,93,6.0,7.0,60,0.00,OVC,OVC,0.00,WeatherDisplay:10.37,2013-03-08 13:36:00,
2013-03-08 07:42:00,46.5,33.3,30.06,East,101,5.0,12.0,60,0.00,OVC,OVC,0.00,WeatherDisplay:10.37,2013-03-08 13:42:00,
2013-03-08 07:48:00,46.7,33.1,30.06,ESE,112,6.0,9.0,59,0.00,OVC,OVC,0.00,WeatherDisplay:10.37,2013-03-08 13:48:00,
2013-03-08 07:54:00,46.9,33.3,30.07,ESE,109,7.0,8.0,59,0.00,OVC,OVC,0.00,WeatherDisplay:10.37,2013-03-08 13:54:00,
2013-03-08 08:00:00,47.1,33.1,30.07,ESE,117,7.0,12.0,58,0.00,OVC,OVC,0.00,WeatherDisplay:10.37,2013-03-08 14:00:00,
2013-03-08 08:06:00,47.3,33.3,30.08,ESE,118,6.0,10.0,58,0.00,BKN,BKN,0.00,WeatherDisplay:10.37,2013-03-08 14:06:00,
2013-03-08 08:12:00,47.5,33.4,30.08,SE,128,6.0,9.0,58,0.00,BKN,BKN,0.00,WeatherDisplay:10.37,2013-03-08 14:12:00,
2013-03-08 08:18:00,47.7,33.6,30.08,ESE,123,7.0,9.0,58,0.00,BKN,BKN,0.00,WeatherDisplay:10.37,2013-03-08 14:18:00,
2013-03-08 08:24:00,47.9,33.4,30.08,ESE,115,6.0,8.0,57,0.00,BKN,BKN,0.00,WeatherDisplay:10.37,2013-03-08 14:24:00,
2013-03-08 08:30:00,48.2,33.7,30.08,ESE,113,5.0,8.0,57,0.00,BKN,BKN,0.00,WeatherDisplay:10.37,2013-03-08 14:30:00,
2013-03-08 08:36:00,48.6,34.1,30.08,ESE,109,8.0,9.0,57,0.00,BKN,BKN,0.00,WeatherDisplay:10.37,2013-03-08 14:36:00,
2013-03-08 08:42:00,49.4,34.4,30.07,ESE,103,8.0,12.0,56,0.00,BKN,BKN,0.00,WeatherDisplay:10.37,2013-03-08 14:42:00,
2013-03-08 08:48:00,49.5,34.4,30.07,ESE,118,6.0,7.0,56,0.00,BKN,BKN,0.00,WeatherDisplay:10.37,2013-03-08 14:48:00,
2013-03-08 08:54:00,49.5,34.4,30.07,SE,124,7.0,10.0,56,0.00,BKN,BKN,0.00,WeatherDisplay:10.37,2013-03-08 14:54:00,
2013-03-08 09:00:00,49.5,34.4,30.07,SE,127,7.0,8.0,56,0.00,BKN,BKN,0.00,WeatherDisplay:10.37,2013-03-08 15:00:00,
2013-03-08 09:06:00,49.8,34.7,30.07,SE,136,6.0,8.0,56,0.00,OVC,OVC,0.00,WeatherDisplay:10.37,2013-03-08 15:06:00,
2013-03-08 09:12:00,49.8,34.7,30.07,SE,133,7.0,14.0,56,0.00,OVC,OVC,0.00,WeatherDisplay:10.37,2013-03-08 15:12:00,
2013-03-08 09:18:00,49.8,35.2,30.07,SE,134,9.0,10.0,57,0.00,OVC,OVC,0.00,WeatherDisplay:10.37,2013-03-08 15:18:00,
2013-03-08 09:24:00,50.2,35.5,30.07,SE,125,8.0,12.0,57,0.00,OVC,OVC,0.00,WeatherDisplay:10.37,2013-03-08 15:24:00,
2013-03-08 09:30:00,50.4,35.7,30.07,SSE,147,7.0,7.0,57,0.00,OVC,OVC,0.00,WeatherDisplay:10.37,2013-03-08 15:30:00,
2013-03-08 09:36:00,50.4,35.7,30.07,SSE,158,7.0,7.0,57,0.00,OVC,OVC,0.00,WeatherDisplay:10.37,2013-03-08 15:36:00,
2013-03-08 09:42:00,50.4,35.7,30.07,SSE,158,7.0,7.0,57,0.00,OVC,OVC,0.00,WeatherDisplay:10.37,2013-03-08 15:42:00,
2013-03-08 09:48:00,50.4,35.7,30.07,SSE,158,7.0,7.0,57,0.00,OVC,OVC,0.00,WeatherDisplay:10.37,2013-03-08 15:48:00,
2013-03-08 09:54:00,50.4,35.7,30.07,SSE,158,7.0,7.0,57,0.00,OVC,OVC,0.00,WeatherDisplay:10.37,2013-03-08 15:54:00,
2013-03-08 10:00:00,50.4,35.7,30.07,SSE,158,7.0,7.0,57,0.00,OVC,OVC,0.00,WeatherDisplay:10.37,2013-03-08 16:00:00,
2013-03-08 10:06:00,50.4,35.7,30.07,SSE,158,7.0,7.0,57,0.00,OVC,OVC,0.00,WeatherDisplay:10.37,2013-03-08 16:06:00,
2013-03-08 10:12:00,50.4,35.7,30.07,SSE,158,7.0,7.0,57,0.00,OVC,OVC,0.00,WeatherDisplay:10.37,2013-03-08 16:12:00,
2013-03-08 10:18:00,50.4,35.7,30.07,SSE,158,7.0,7.0,57,0.00,OVC,OVC,0.00,WeatherDisplay:10.37,2013-03-08 16:18:00,
2013-03-08 10:24:00,50.4,35.7,30.07,SSE,158,7.0,7.0,57,0.00,OVC,OVC,0.00,WeatherDisplay:10.37,2013-03-08 16:24:00,
2013-03-08 10:30:00,50.4,35.7,30.07,SSE,158,7.0,7.0,57,0.00,OVC,OVC,0.00,WeatherDisplay:10.37,2013-03-08 16:30:00,
2013-03-08 10:36:00,50.4,35.7,30.07,SSE,158,7.0,7.0,57,0.00,OVC,OVC,0.00,WeatherDisplay:10.37,2013-03-08 16:36:00,
2013-03-08 10:42:00,50.4,35.7,30.07,SSE,158,7.0,7.0,57,0.00,OVC,OVC,0.00,WeatherDisplay:10.37,2013-03-08 16:42:00,
2013-03-08 10:48:00,50.4,35.7,30.07,SSE,158,7.0,7.0,57,0.00,OVC,OVC,0.00,WeatherDisplay:10.37,2013-03-08 16:48:00,
2013-03-08 10:54:00,53.3,38.5,30.07,SSE,150,7.0,10.0,57,0.00,OVC,OVC,0.00,WeatherDisplay:10.37,2013-03-08 16:54:00,
2013-03-08 11:00:00,55.8,41.2,30.05,SE,137,8.0,12.0,58,0.00,OVC,OVC,0.00,WeatherDisplay:10.37,2013-03-08 17:00:00,
2013-03-08 11:06:00,55.9,41.3,30.05,ESE,103,10.0,16.0,58,0.00,OVC,OVC,0.00,WeatherDisplay:10.37,2013-03-08 17:06:00,
2013-03-08 11:12:00,55.8,41.3,30.05,SE,126,7.0,13.0,58,0.00,OVC,OVC,0.00,WeatherDisplay:10.37,2013-03-08 17:12:00,
2013-03-08 11:18:00,56.1,41.6,30.06,SE,144,10.0,18.0,58,0.00,OVC,OVC,0.00,WeatherDisplay:10.37,2013-03-08 17:18:00,
2013-03-08 11:24:00,56.8,42.2,30.06,SE,133,9.0,26.0,58,0.00,OVC,OVC,0.00,WeatherDisplay:10.37,2013-03-08 17:24:00,
2013-03-08 11:30:00,57.6,42.5,30.06,SE,139,13.0,24.0,57,0.00,OVC,OVC,0.00,WeatherDisplay:10.37,2013-03-08 17:30:00,
2013-03-08 11:36:00,58.0,42.8,30.06,SSE,151,17.0,24.0,57,0.00,OVC,OVC,0.00,WeatherDisplay:10.37,2013-03-08 17:36:00,
2013-03-08 11:42:00,58.1,43.4,30.05,SSE,153,9.0,12.0,58,0.00,OVC,OVC,0.00,WeatherDisplay:10.37,2013-03-08 17:42:00,
2013-03-08 11:48:00,57.6,43.4,30.05,SSE,147,10.0,23.0,59,0.00,OVC,OVC,0.00,WeatherDisplay:10.37,2013-03-08 17:48:00,
2013-03-08 11:54:00,58.2,43.5,30.04,SSE,147,7.0,12.0,58,0.00,OVC,OVC,0.00,WeatherDisplay:10.37,2013-03-08 17:54:00,
2013-03-08 12:00:00,57.7,43.0,30.04,SE,139,15.0,17.0,58,0.00,OVC,OVC,0.00,WeatherDisplay:10.37,2013-03-08 18:00:00,
2013-03-08 12:06:00,57.9,43.2,30.04,SSE,148,13.0,20.0,58,0.00,OVC,OVC,0.00,WeatherDisplay:10.37,2013-03-08 18:06:00,
2013-03-08 12:12:00,58.2,43.5,30.04,SSE,153,14.0,21.0,58,0.00,OVC,OVC,0.00,WeatherDisplay:10.37,2013-03-08 18:12:00,
2013-03-08 12:18:00,58.1,43.4,30.03,SSE,149,10.0,15.0,58,0.00,OVC,OVC,0.00,WeatherDisplay:10.37,2013-03-08 18:18:00,
2013-03-08 12:24:00,57.9,43.2,30.03,South,185,8.0,8.0,58,0.00,OVC,OVC,0.00,WeatherDisplay:10.37,2013-03-08 18:24:00,
2013-03-08 12:30:00,58.3,44.0,30.03,South,172,8.0,14.0,59,0.00,OVC,OVC,0.00,WeatherDisplay:10.37,2013-03-08 18:30:00,
2013-03-08 12:36:00,57.7,43.9,30.03,SSE,150,10.0,14.0,60,0.00,OVC,OVC,0.00,WeatherDisplay:10.37,2013-03-08 18:36:00,
2013-03-08 12:42:00,57.9,44.1,30.01,SE,140,8.0,14.0,60,0.00,OVC,OVC,0.00,WeatherDisplay:10.37,2013-03-08 18:42:00,
2013-03-08 12:48:00,58.0,45.1,30.01,SE,140,13.0,26.0,62,0.00,OVC,OVC,0.00,WeatherDisplay:10.37,2013-03-08 18:48:00,
2013-03-08 12:54:00,58.4,45.4,30.01,SE,133,8.0,12.0,62,0.00,OVC,OVC,0.00,WeatherDisplay:10.37,2013-03-08 18:54:00,
2013-03-08 13:00:00,58.6,45.6,30.01,SE,140,7.0,9.0,62,0.00,OVC,OVC,0.00,WeatherDisplay:10.37,2013-03-08 19:00:00,
2013-03-08 13:06:00,58.5,45.9,30.01,SE,132,7.0,15.0,63,0.00,OVC,OVC,0.00,WeatherDisplay:10.37,2013-03-08 19:06:00,
2013-03-08 13:12:00,58.5,46.4,30.00,SE,137,9.0,15.0,64,0.00,OVC,OVC,0.00,WeatherDisplay:10.37,2013-03-08 19:12:00,
2013-03-08 13:18:00,58.5,46.4,29.99,SE,124,7.0,7.0,64,0.00,OVC,OVC,0.00,WeatherDisplay:10.37,2013-03-08 19:18:00,
2013-03-08 13:24:00,58.5,46.4,29.99,East,90,7.0,7.0,64,0.00,OVC,OVC,0.00,WeatherDisplay:10.37,2013-03-08 19:24:00,
2013-03-08 13:30:00,58.5,46.4,29.99,East,90,7.0,7.0,64,0.00,OVC,OVC,0.00,WeatherDisplay:10.37,2013-03-08 19:30:00,
2013-03-08 13:36:00,58.5,46.4,29.99,East,90,7.0,7.0,64,0.00,OVC,OVC,0.00,WeatherDisplay:10.37,2013-03-08 19:36:00,
2013-03-08 13:42:00,58.5,46.4,29.99,East,90,7.0,7.0,64,0.00,OVC,OVC,0.00,WeatherDisplay:10.37,2013-03-08 19:42:00,
2013-03-08 13:48:00,58.5,46.4,29.99,East,90,7.0,7.0,64,0.00,OVC,OVC,0.00,WeatherDisplay:10.37,2013-03-08 19:48:00,
2013-03-08 13:54:00,58.5,46.4,29.99,East,90,7.0,7.0,64,0.00,OVC,OVC,0.00,WeatherDisplay:10.37,2013-03-08 19:54:00,
2013-03-08 14:00:00,60.1,47.5,29.97,ESE,106,9.0,14.0,63,0.00,OVC,OVC,0.00,WeatherDisplay:10.37,2013-03-08 20:00:00,
2013-03-08 14:06:00,60.3,47.6,29.96,SE,126,7.0,15.0,63,0.00,BKN,BKN,0.00,WeatherDisplay:10.37,2013-03-08 20:06:00,
2013-03-08 14:12:00,60.4,47.7,29.96,SE,144,9.0,12.0,63,0.00,BKN,BKN,0.00,WeatherDisplay:10.37,2013-03-08 20:12:00,
2013-03-08 14:18:00,59.7,47.1,29.96,SE,126,12.0,19.0,63,0.00,BKN,BKN,0.00,WeatherDisplay:10.37,2013-03-08 20:18:00,
2013-03-08 14:24:00,60.3,47.6,29.96,SE,137,10.0,15.0,63,0.00,BKN,BKN,0.00,WeatherDisplay:10.37,2013-03-08 20:24:00,
2013-03-08 14:30:00,60.3,48.1,29.96,SSE,147,13.0,21.0,64,0.00,BKN,BKN,0.00,WeatherDisplay:10.37,2013-03-08 20:30:00,
2013-03-08 14:36:00,60.1,47.9,29.96,SE,138,6.0,8.0,64,0.00,BKN,BKN,0.00,WeatherDisplay:10.37,2013-03-08 20:36:00,
2013-03-08 14:42:00,60.1,47.9,29.96,SE,133,9.0,12.0,64,0.00,BKN,BKN,0.00,WeatherDisplay:10.37,2013-03-08 20:42:00,
2013-03-08 14:48:00,60.3,48.1,29.96,SE,139,7.0,9.0,64,0.00,BKN,BKN,0.00,WeatherDisplay:10.37,2013-03-08 20:48:00,
2013-03-08 14:54:00,59.8,47.6,29.95,SE,137,12.0,14.0,64,0.00,BKN,BKN,0.00,WeatherDisplay:10.37,2013-03-08 20:54:00,
2013-03-08 15:00:00,59.7,47.5,29.95,SE,136,9.0,19.0,64,0.00,BKN,BKN,0.00,WeatherDisplay:10.37,2013-03-08 21:00:00,
2013-03-08 15:06:00,59.3,47.6,29.95,SE,144,14.0,19.0,65,0.00,BKN,BKN,0.00,WeatherDisplay:10.37,2013-03-08 21:06:00,
2013-03-08 15:12:00,59.2,47.8,29.95,SE,135,10.0,18.0,66,0.00,BKN,BKN,0.00,WeatherDisplay:10.37,2013-03-08 21:12:00,
2013-03-08 15:18:00,59.0,47.7,29.95,SE,133,8.0,12.0,66,0.00,BKN,BKN,0.00,WeatherDisplay:10.37,2013-03-08 21:18:00,
2013-03-08 15:24:00,59.2,47.8,29.95,SE,137,9.0,16.0,66,0.00,BKN,BKN,0.00,WeatherDisplay:10.37,2013-03-08 21:24:00,
2013-03-08 15:30:00,59.0,47.7,29.94,SE,140,7.0,18.0,66,0.00,BKN,BKN,0.00,WeatherDisplay:10.37,2013-03-08 21:30:00,
2013-03-08 15:36:00,58.8,47.5,29.94,SE,145,8.0,13.0,66,0.00,BKN,BKN,0.00,WeatherDisplay:10.37,2013-03-08 21:36:00,
2013-03-08 15:42:00,58.5,47.2,29.94,SSE,152,14.0,16.0,66,0.00,BKN,BKN,0.00,WeatherDisplay:10.37,2013-03-08 21:42:00,
2013-03-08 15:48:00,58.1,47.2,29.94,SE,146,9.0,16.0,67,0.00,BKN,BKN,0.00,WeatherDisplay:10.37,2013-03-08 21:48:00,
2013-03-08 15:54:00,58.1,47.2,29.93,SE,141,10.0,14.0,67,0.00,BKN,BKN,0.00,WeatherDisplay:10.37,2013-03-08 21:54:00,
2013-03-08 16:00:00,57.7,46.8,29.93,SE,136,8.0,16.0,67,0.00,BKN,BKN,0.00,WeatherDisplay:10.37,2013-03-08 22:00:00,
2013-03-08 16:06:00,57.4,46.9,29.93,SE,135,9.0,12.0,68,0.00,OVC,OVC,0.00,WeatherDisplay:10.37,2013-03-08 22:06:00,
2013-03-08 16:12:00,57.0,46.5,29.93,ESE,121,9.0,19.0,68,0.00,OVC,OVC,0.00,WeatherDisplay:10.37,2013-03-08 22:12:00,
2013-03-08 16:18:00,56.8,46.7,29.93,SE,128,10.0,14.0,69,0.00,OVC,OVC,0.00,WeatherDisplay:10.37,2013-03-08 22:18:00,
2013-03-08 16:24:00,56.3,46.6,29.93,SE,130,9.0,17.0,70,0.00,OVC,OVC,0.00,WeatherDisplay:10.37,2013-03-08 22:24:00,
2013-03-08 16:30:00,55.9,46.6,29.93,SE,129,8.0,12.0,71,0.00,OVC,OVC,0.00,WeatherDisplay:10.37,2013-03-08 22:30:00,
2013-03-08 16:36:00,55.4,46.2,29.93,SE,141,8.0,12.0,71,0.00,OVC,OVC,0.00,WeatherDisplay:10.37,2013-03-08 22:36:00,
2013-03-08 16:42:00,55.0,45.8,29.93,SE,126,10.0,16.0,71,0.00,OVC,OVC,0.00,WeatherDisplay:10.37,2013-03-08 22:42:00,
2013-03-08 16:48:00,55.0,45.8,29.93,SE,125,8.0,12.0,71,0.00,OVC,OVC,0.00,WeatherDisplay:10.37,2013-03-08 22:48:00,
2013-03-08 16:54:00,55.0,45.8,29.93,SE,144,7.0,12.0,71,0.00,OVC,OVC,0.00,WeatherDisplay:10.37,2013-03-08 22:54:00,
2013-03-08 17:00:00,55.2,46.0,29.93,SE,141,8.0,10.0,71,0.00,OVC,OVC,0.00,WeatherDisplay:10.37,2013-03-08 23:00:00,
2013-03-08 17:06:00,55.2,46.0,29.94,ESE,123,7.0,12.0,71,0.00,OVC,OVC,0.00,WeatherDisplay:10.37,2013-03-08 23:06:00,
2013-03-08 17:12:00,55.2,46.0,29.94,SE,128,10.0,12.0,71,0.00,OVC,OVC,0.00,WeatherDisplay:10.37,2013-03-08 23:12:00,
2013-03-08 17:18:00,55.2,46.0,29.94,SE,126,9.0,13.0,71,0.00,OVC,OVC,0.00,WeatherDisplay:10.37,2013-03-08 23:18:00,
2013-03-08 17:24:00,55.4,45.8,29.93,ESE,115,9.0,10.0,70,0.00,OVC,OVC,0.00,WeatherDisplay:10.37,2013-03-08 23:24:00,
2013-03-08 17:30:00,55.4,45.8,29.93,ESE,116,7.0,12.0,70,0.00,OVC,OVC,0.00,WeatherDisplay:10.37,2013-03-08 23:30:00,
2013-03-08 17:36:00,55.1,45.5,29.93,SE,129,9.0,13.0,70,0.00,OVC,OVC,0.00,WeatherDisplay:10.37,2013-03-08 23:36:00,
2013-03-08 17:42:00,55.0,45.8,29.93,SE,126,10.0,12.0,71,0.00,OVC,OVC,0.00,WeatherDisplay:10.37,2013-03-08 23:42:00,
2013-03-08 17:48:00,55.0,45.8,29.93,ESE,122,7.0,9.0,71,0.00,OVC,OVC,0.00,WeatherDisplay:10.37,2013-03-08 23:48:00,
2013-03-08 17:54:00,55.0,45.8,29.93,SE,128,7.0,9.0,71,0.00,OVC,OVC,0.00,WeatherDisplay:10.37,2013-03-08 23:54:00,
2013-03-08 18:00:00,54.9,45.7,29.93,SE,139,8.0,10.0,71,0.00,OVC,OVC,0.00,WeatherDisplay:10.37,2013-03-09 00:00:00,
2013-03-08 18:06:00,54.9,46.0,29.92,SE,138,7.0,9.0,72,0.00,OVC,OVC,0.00,WeatherDisplay:10.37,2013-03-09 00:06:00,
2013-03-08 18:12:00,54.7,45.8,29.92,SE,141,8.0,10.0,72,0.00,OVC,OVC,0.00,WeatherDisplay:10.37,2013-03-09 00:12:00,
2013-03-08 18:18:00,54.7,46.2,29.93,SE,134,9.0,13.0,73,0.00,OVC,OVC,0.00,WeatherDisplay:10.37,2013-03-09 00:18:00,
2013-03-08 18:24:00,54.4,46.0,29.93,SE,132,8.0,10.0,73,0.00,OVC,OVC,0.00,WeatherDisplay:10.37,2013-03-09 00:24:00,
2013-03-08 18:30:00,54.1,45.6,29.93,SE,127,8.0,9.0,73,0.00,OVC,OVC,0.00,WeatherDisplay:10.37,2013-03-09 00:30:00,
2013-03-08 18:36:00,54.0,46.3,29.93,ESE,122,9.0,13.0,75,0.00,OVC,OVC,0.00,WeatherDisplay:10.37,2013-03-09 00:36:00,
2013-03-08 18:42:00,53.8,46.1,29.93,ESE,116,9.0,12.0,75,0.00,OVC,OVC,0.00,WeatherDisplay:10.37,2013-03-09 00:42:00,
2013-03-08 18:48:00,53.6,45.9,29.93,SE,129,8.0,10.0,75,0.00,OVC,OVC,0.00,WeatherDisplay:10.37,2013-03-09 00:48:00,
2013-03-08 18:54:00,53.4,46.0,29.92,SE,134,8.0,13.0,76,0.00,OVC,OVC,0.00,WeatherDisplay:10.37,2013-03-09 00:54:00,
2013-03-08 19:00:00,53.4,46.0,29.92,SE,133,10.0,16.0,76,0.00,OVC,OVC,0.00,WeatherDisplay:10.37,2013-03-09 01:00:00,
2013-03-08 19:06:00,53.2,45.8,29.92,SE,137,8.0,12.0,76,0.00,OVC,OVC,0.00,WeatherDisplay:10.37,2013-03-09 01:06:00,
2013-03-08 19:12:00,53.2,45.8,29.92,SE,131,7.0,9.0,76,0.00,OVC,OVC,0.00,WeatherDisplay:10.37,2013-03-09 01:12:00,
2013-03-08 19:18:00,53.2,45.8,29.92,SE,133,9.0,12.0,76,0.00,OVC,OVC,0.00,WeatherDisplay:10.37,2013-03-09 01:18:00,
2013-03-08 19:24:00,53.4,46.0,29.92,SE,139,9.0,17.0,76,0.00,OVC,OVC,0.00,WeatherDisplay:10.37,2013-03-09 01:24:00,
2013-03-08 19:30:00,53.4,46.4,29.93,SE,139,10.0,15.0,77,0.00,OVC,OVC,0.00,WeatherDisplay:10.37,2013-03-09 01:30:00,
2013-03-08 19:36:00,53.4,46.4,29.93,SE,129,10.0,21.0,77,0.00,OVC,OVC,0.00,WeatherDisplay:10.37,2013-03-09 01:36:00,
2013-03-08 19:42:00,53.4,46.4,29.92,South,172,9.0,9.0,77,0.00,OVC,OVC,0.00,WeatherDisplay:10.37,2013-03-09 01:42:00,
2013-03-08 19:48:00,53.4,46.4,29.92,South,182,9.0,12.0,77,0.00,OVC,OVC,0.00,WeatherDisplay:10.37,2013-03-09 01:48:00,
2013-03-08 19:54:00,53.4,46.4,29.92,SE,138,12.0,18.0,77,0.00,OVC,OVC,0.00,WeatherDisplay:10.37,2013-03-09 01:54:00,
2013-03-08 20:00:00,53.4,46.4,29.92,SE,137,7.0,20.0,77,0.00,OVC,OVC,0.00,WeatherDisplay:10.37,2013-03-09 02:00:00,
2013-03-08 20:06:00,53.4,46.4,29.92,SE,135,7.0,13.0,77,0.00,OVC,OVC,0.00,WeatherDisplay:10.37,2013-03-09 02:06:00,
2013-03-08 20:12:00,53.4,46.4,29.92,SE,131,9.0,14.0,77,0.00,OVC,OVC,0.00,WeatherDisplay:10.37,2013-03-09 02:12:00,
2013-03-08 20:18:00,53.4,46.4,29.92,SE,140,10.0,14.0,77,0.00,OVC,OVC,0.00,WeatherDisplay:10.37,2013-03-09 02:18:00,
2013-03-08 20:24:00,53.4,46.4,29.92,SE,138,8.0,14.0,77,0.00,OVC,OVC,0.00,WeatherDisplay:10.37,2013-03-09 02:24:00,
2013-03-08 20:30:00,53.6,46.6,29.92,SE,125,9.0,25.0,77,0.00,OVC,OVC,0.00,WeatherDisplay:10.37,2013-03-09 02:30:00,
2013-03-08 20:36:00,53.6,46.6,29.92,SE,144,12.0,18.0,77,0.00,OVC,OVC,0.00,WeatherDisplay:10.37,2013-03-09 02:36:00,
2013-03-08 20:42:00,53.6,46.6,29.93,South,169,9.0,14.0,77,0.00,OVC,OVC,0.00,WeatherDisplay:10.37,2013-03-09 02:42:00,
2013-03-08 20:48:00,53.6,46.6,29.93,SSE,157,10.0,17.0,77,0.00,OVC,OVC,0.00,WeatherDisplay:10.37,2013-03-09 02:48:00,
2013-03-08 20:54:00,53.6,46.6,29.92,SE,146,8.0,14.0,77,0.00,OVC,OVC,0.00,WeatherDisplay:10.37,2013-03-09 02:54:00,
2013-03-08 21:00:00,53.6,46.6,29.92,SE,146,13.0,16.0,77,0.00,OVC,OVC,0.00,WeatherDisplay:10.37,2013-03-09 03:00:00,
2013-03-08 21:06:00,53.8,46.4,29.92,SE,145,14.0,23.0,76,0.00,OVC,OVC,0.00,WeatherDisplay:10.37,2013-03-09 03:06:00,
2013-03-08 21:12:00,53.8,46.4,29.92,SE,140,10.0,16.0,76,0.00,OVC,OVC,0.00,WeatherDisplay:10.37,2013-03-09 03:12:00,
2013-03-08 21:18:00,53.8,46.4,29.92,SE,136,12.0,20.0,76,0.00,OVC,OVC,0.00,WeatherDisplay:10.37,2013-03-09 03:18:00,
2013-03-08 21:24:00,53.8,46.4,29.92,SE,142,8.0,16.0,76,0.00,OVC,OVC,0.00,WeatherDisplay:10.37,2013-03-09 03:24:00,
2013-03-08 21:30:00,53.6,46.2,29.92,SE,134,9.0,14.0,76,0.00,OVC,OVC,0.00,WeatherDisplay:10.37,2013-03-09 03:30:00,
2013-03-08 21:36:00,53.6,45.9,29.92,SE,134,8.0,14.0,75,0.00,OVC,OVC,0.00,WeatherDisplay:10.37,2013-03-09 03:36:00,
2013-03-08 21:42:00,53.6,45.9,29.91,SE,138,9.0,16.0,75,0.00,OVC,OVC,0.00,WeatherDisplay:10.37,2013-03-09 03:42:00,
2013-03-08 21:48:00,53.6,45.9,29.91,SE,130,9.0,14.0,75,0.00,OVC,OVC,0.00,WeatherDisplay:10.37,2013-03-09 03:48:00,
2013-03-08 21:54:00,53.6,45.9,29.91,SE,132,12.0,16.0,75,0.00,OVC,OVC,0.00,WeatherDisplay:10.37,2013-03-09 03:54:00,
2013-03-08 22:00:00,53.6,45.9,29.91,SE,141,8.0,12.0,75,0.00,OVC,OVC,0.00,WeatherDisplay:10.37,2013-03-09 04:00:00,
2013-03-08 22:06:00,53.6,45.9,29.91,SSE,162,7.0,7.0,75,0.00,OVC,OVC,0.00,WeatherDisplay:10.37,2013-03-09 04:06:00,
2013-03-08 22:12:00,53.6,45.9,29.91,South,180,7.0,7.0,75,0.00,OVC,OVC,0.00,WeatherDisplay:10.37,2013-03-09 04:12:00,
2013-03-08 22:18:00,53.6,45.9,29.91,South,180,7.0,7.0,75,0.00,OVC,OVC,0.00,WeatherDisplay:10.37,2013-03-09 04:18:00,
2013-03-08 22:24:00,53.6,45.9,29.91,South,180,7.0,7.0,75,0.00,OVC,OVC,0.00,WeatherDisplay:10.37,2013-03-09 04:24:00,
2013-03-08 22:36:00,53.6,45.9,29.89,SSE,155,10.0,13.0,75,0.00,OVC,OVC,0.00,WeatherDisplay:10.37,2013-03-09 04:36:00,
2013-03-08 22:42:00,53.6,45.9,29.89,SE,136,8.0,12.0,75,0.00,OVC,OVC,0.00,WeatherDisplay:10.37,2013-03-09 04:42:00,
2013-03-08 22:48:00,53.6,45.9,29.89,ESE,123,14.0,14.0,75,0.00,OVC,OVC,0.00,WeatherDisplay:10.37,2013-03-09 04:48:00,
2013-03-08 22:54:00,53.6,45.9,29.89,SE,135,9.0,16.0,75,0.00,OVC,OVC,0.00,WeatherDisplay:10.37,2013-03-09 04:54:00,
2013-03-08 23:00:00,53.6,45.9,29.89,SSE,150,10.0,15.0,75,0.00,OVC,OVC,0.00,WeatherDisplay:10.37,2013-03-09 05:00:00,
2013-03-08 23:06:00,53.8,46.1,29.90,SSE,162,15.0,22.0,75,0.00,OVC,OVC,0.00,WeatherDisplay:10.37,2013-03-09 05:06:00,
2013-03-08 23:12:00,54.0,46.3,29.90,SE,136,12.0,21.0,75,0.00,OVC,OVC,0.00,WeatherDisplay:10.37,2013-03-09 05:12:00,
2013-03-08 23:18:00,54.1,46.3,29.90,SE,136,13.0,23.0,75,0.00,OVC,OVC,0.00,WeatherDisplay:10.37,2013-03-09 05:18:00,
2013-03-08 23:24:00,54.1,46.3,29.90,SSE,156,12.0,14.0,75,0.00,OVC,OVC,0.00,WeatherDisplay:10.37,2013-03-09 05:24:00,
2013-03-08 23:30:00,54.3,46.5,29.90,SSE,162,17.0,26.0,75,0.00,OVC,OVC,0.00,WeatherDisplay:10.37,2013-03-09 05:30:00,
2013-03-08 23:36:00,54.5,46.7,29.90,SSE,159,18.0,20.0,75,0.00,OVC,OVC,0.00,WeatherDisplay:10.37,2013-03-09 05:36:00,
2013-03-08 23:42:00,54.3,46.5,29.90,SSE,149,9.0,19.0,75,0.00,OVC,OVC,0.00,WeatherDisplay:10.37,2013-03-09 05:42:00,
2013-03-08 23:48:00,54.3,46.5,29.90,SE,139,14.0,18.0,75,0.00,OVC,OVC,0.00,WeatherDisplay:10.37,2013-03-09 05:48:00,
2013-03-08 23:54:00,54.3,46.5,29.90,SE,138,13.0,16.0,75,0.00,OVC,OVC,0.00,WeatherDisplay:10.37,2013-03-09 05:54:00,